Time;durP1;ratioP1;P1;durP2;ratioP2;P2;SDS_P1;SDS_P2;PMS_P1;PMS_P2;Temp;Humidity;BMP_temperature;BMP_pressure;BME280_temperature;BME280_humidity;BME280_pressure;Samples;Min_cycle;Max_cycle;Signal;HPM_P1;HPM_P2
2021/06/18 00:02:23;;;;;;;54.72;49.03;;;19.90;90.40;;;;;;4947368;28;20054;-92
2021/06/18 00:05:10;;;;;;;56.42;50.40;;;19.90;90.40;;;;;;5009896;27;20155;-91
2021/06/18 00:07:41;;;;;;;58.13;52.13;;;19.90;90.40;;;;;;4988740;28;20420;-91
2021/06/18 00:10:33;;;;;;;61.97;55.33;;;19.80;90.40;;;;;;4965904;27;141785;-91
2021/06/18 00:13:05;;;;;;;58.78;52.25;;;19.80;90.60;;;;;;4879358;28;20159;-91
2021/06/18 00:15:48;;;;;;;55.15;49.25;;;19.70;90.80;;;;;;4974675;27;20146;-91
2021/06/18 00:18:32;;;;;;;55.15;49.55;;;19.70;90.80;;;;;;4891767;28;20071;-91
2021/06/18 00:21:22;;;;;;;55.78;47.97;;;19.80;90.80;;;;;;4900679;27;3007450;-91
2021/06/18 00:23:52;;;;;;;56.63;50.58;;;19.80;90.60;;;;;;4878446;29;20044;-91
2021/06/18 00:26:37;;;;;;;60.00;53.67;;;19.80;90.60;;;;;;4940000;28;139571;-91
2021/06/18 00:29:05;;;;;;;57.67;50.95;;;19.80;90.60;;;;;;4889779;29;20123;-91
2021/06/18 00:31:32;;;;;;;60.28;53.80;;;19.80;90.70;;;;;;4867613;29;20621;-92
2021/06/18 00:34:15;;;;;;;57.83;51.67;;;19.80;90.80;;;;;;5032434;27;20167;-90
2021/06/18 00:36:43;;;;;;;56.13;50.35;;;19.80;90.80;;;;;;4942111;28;20109;-91
2021/06/18 00:39:21;;;;;;;51.80;46.33;;;19.70;91.00;;;;;;4958969;28;20053;-90
2021/06/18 00:44:38;;;;;;;59.83;53.58;;;19.70;90.90;;;;;;4993204;27;20518;-91
2021/06/18 00:49:58;;;;;;;58.70;52.50;;;19.60;91.00;;;;;;4971012;28;20179;-91
2021/06/18 00:52:28;;;;;;;59.53;53.22;;;19.50;91.30;;;;;;4923958;28;20042;-91
2021/06/18 00:55:07;;;;;;;58.70;52.35;;;19.40;91.50;;;;;;5020101;27;20628;-93
2021/06/18 00:57:48;;;;;;;61.47;54.97;;;19.40;91.70;;;;;;4942215;28;20062;-90
2021/06/18 01:04:50;;;;;;;;;;;;;;;;;;;;;
2021/06/18 01:07:43;;;;;;;57.45;51.25;;;19.30;92.00;;;;;;4898462;28;20409;-91
2021/06/18 01:10:37;;;;;;;69.25;62.63;;;19.20;92.10;;;;;;4991198;27;20441;-91
2021/06/18 01:13:14;;;;;;;60.65;54.38;;;19.50;92.20;;;;;;4885548;28;20191;-91
2021/06/18 01:16:37;;;;;;;58.78;52.42;;;19.40;92.10;;;;;;4986745;27;20155;-92
2021/06/18 01:19:30;;;;;;;59.35;53.05;;;19.30;92.10;;;;;;4907963;28;20051;-91
2021/06/18 01:22:02;;;;;;;55.45;49.72;;;19.30;92.20;;;;;;4821020;28;2040475;-90
2021/06/18 01:25:02;;;;;;;54.42;48.60;;;19.20;92.30;;;;;;5021624;27;20155;-91
2021/06/18 01:27:59;;;;;;;57.47;51.53;;;19.20;92.30;;;;;;4858223;29;20056;-90
2021/06/18 01:30:44;;;;;;;59.53;53.28;;;19.20;92.20;;;;;;5020169;27;255668;-90
2021/06/18 01:33:29;;;;;;;60.30;53.80;;;19.30;92.20;;;;;;4874187;29;20067;-91
2021/06/18 01:36:18;;;;;;;53.42;47.95;;;19.20;92.40;;;;;;4997679;27;20169;-90
2021/06/18 01:39:18;;;;;;;55.00;49.25;;;19.20;92.40;;;;;;5002436;27;20132;-91
2021/06/18 01:41:49;;;;;;;59.28;52.33;;;19.30;92.40;;;;;;4936708;28;20077;-91
2021/06/18 01:44:36;;;;;;;55.45;49.67;;;19.20;92.50;;;;;;4992009;27;20510;-90
2021/06/18 01:47:16;;;;;;;54.40;49.05;;;19.10;92.50;;;;;;4941683;28;20217;-91
2021/06/18 01:52:13;;;;;;;58.88;52.55;;;19.00;92.70;;;;;;5007725;27;148505;-91
2021/06/18 01:54:45;;;;;;;53.85;48.20;;;19.00;92.90;;;;;;4952547;28;20065;-91
2021/06/18 01:57:16;;;;;;;57.25;51.22;;;18.90;93.00;;;;;;4889594;28;20100;-91
2021/06/18 01:59:45;;;;;;;57.53;51.17;;;;;;;;;;4911385;28;20134;-91
2021/06/18 02:05:17;;;;;;;52.90;47.25;;;;;;;;;;5006801;27;20272;-91
2021/06/18 02:10:42;;;;;;;52.38;47.00;;;;;;;;;;4971855;28;20155;-91
2021/06/18 02:13:10;;;;;;;54.35;48.53;;;;;;;;;;4546001;28;6652090;-88
2021/06/18 02:16:05;;;;;;;54.70;48.80;;;;;;;;;;4952637;27;816156;-92
2021/06/18 02:18:39;;;;;;;53.33;47.72;;;;;;;;;;4916249;28;20070;-91
2021/06/18 02:21:25;;;;;;;51.92;46.24;;;;;;;;;;4445104;28;13986633;-93
2021/06/18 02:24:27;;;;;;;52.20;46.78;;;;;;;;;;5020827;27;21099;-92
2021/06/18 02:26:55;;;;;;;51.30;46.03;;;;;;;;;;4935393;28;20377;-91
2021/06/18 02:30:04;;;;;;;51.55;46.28;;;;;;;;;;4985204;27;134732;-91
2021/06/18 02:32:40;;;;;;;54.50;48.67;;;;;;;;;;4911607;28;20058;-92
2021/06/18 02:35:30;;;;;;;;;;;;;;;;;;;;;
2021/06/18 02:38:03;;;;;;;44.40;40.08;;;;;;;;;;4867686;29;20064;-92
2021/06/18 02:42:49;;;;;;;47.60;42.58;;;;;;;;;;5014328;27;177210;-91
2021/06/18 02:45:18;;;;;;;48.47;43.55;;;;;;;;;;4926369;28;20056;-91
2021/06/18 02:48:07;;;;;;;49.13;43.97;;;;;;;;;;4993231;27;20156;-92
2021/06/18 02:51:02;;;;;;;46.47;41.88;;;;;;;;;;4888129;28;20139;-91
2021/06/18 02:53:42;;;;;;;50.58;45.38;;;;;;;;;;5006830;27;20540;-91
2021/06/18 02:56:32;;;;;;;45.22;40.78;;;;;;;;;;4901609;28;20933;-91
2021/06/18 03:00:10;;;;;;;;;;;;;;;;;;2950200;29;108482746;-92
2021/06/18 03:02:55;;;;;;;43.60;38.95;;;;;;;;;;4995161;27;20153;-92
2021/06/18 03:05:31;;;;;;;42.63;38.25;;;;;;;;;;4931697;28;20059;-92
2021/06/18 03:08:06;;;;;;;45.72;41.03;;;;;;;;;;4606565;28;6736504;-91
2021/06/18 03:10:51;;;;;;;49.33;44.03;;;;;;;;;;5022794;27;20136;-91
2021/06/18 03:13:28;;;;;;;46.05;41.30;;;;;;;;;;4959337;28;20217;-91
2021/06/18 03:15:59;;;;;;;36.15;32.35;;;;;;;;;;4298680;28;16403649;-91
2021/06/18 03:18:43;;;;;;;45.80;41.00;;;;;;;;;;5005649;27;20140;-91
2021/06/18 03:21:25;;;;;;;49.80;44.63;;;;;;;;;;4949127;28;20058;-92
2021/06/18 03:23:55;;;;;;;48.45;43.33;;;;;;;;;;4869268;29;20039;-92
2021/06/18 03:26:54;;;;;;;40.70;36.60;;;;;;;;;;4976848;27;20124;-91
2021/06/18 03:29:27;;;;;;;44.20;39.58;;;;;;;;;;4878038;29;20135;-91
2021/06/18 03:31:56;;;;;;;48.90;43.53;;;;;;;;;;4466707;28;10228909;-91
2021/06/18 03:34:42;;;;;;;50.25;45.10;;;;;;;;;;4994516;27;828592;-91
2021/06/18 03:37:15;;;;;;;50.30;45.13;;;;;;;;;;4932672;28;20083;-90
2021/06/18 03:39:55;;;;;;;49.75;44.20;;;;;;;;;;4901861;28;20051;-92
2021/06/18 03:42:38;;;;;;;49.72;44.45;;;;;;;;;;4955186;27;20150;-92
2021/06/18 03:45:21;;;;;;;55.13;44.75;;;;;;;;;;4840180;29;21342;-92
2021/06/18 03:48:04;;;;;;;47.65;42.63;;;;;;;;;;5038089;27;106408;-92
2021/06/18 03:50:37;;;;;;;52.40;45.88;;;;;;;;;;4896406;28;20073;-93
2021/06/18 03:53:20;;;;;;;58.70;52.33;;;;;;;;;;5027422;27;102792;-93
2021/06/18 03:55:58;;;;;;;58.65;46.75;;;;;;;;;;4952495;28;20114;-92
2021/06/18 04:03:19;;;;;;;56.03;41.67;;;;;;;;;;4983731;27;20141;-92
2021/06/18 04:08:11;;;;;;;44.30;34.45;;;;;;;;;;5043335;27;20301;-92
2021/06/18 04:10:47;;;;;;;40.70;32.05;;;;;;;;;;4929604;28;20110;-91
2021/06/18 04:13:14;;;;;;;44.75;35.20;;;;;;;;;;4386195;28;11056831;-92
2021/06/18 04:15:59;;;;;;;44.22;35.22;;;;;;;;;;4936040;28;20472;-93
2021/06/18 04:18:34;;;;;;;44.88;34.13;;;;;;;;;;4827416;29;20053;-93
2021/06/18 04:21:19;;;;;;;40.97;33.75;;;;;;;;;;5024774;27;118324;-92
2021/06/18 04:23:52;;;;;;;45.40;36.83;;;;;;;;;;4917190;28;20051;-93
2021/06/18 04:29:53;;;;;;;43.95;37.63;;;;;;;;;;4988969;27;169417;-92
2021/06/18 04:34:25;;;;;;;42.75;36.47;;;;;;;;;;5004203;27;20129;-93
2021/06/18 04:37:01;;;;;;;41.15;36.08;;;;;;;;;;4921672;28;20054;-92
2021/06/18 04:40:18;;;;;;;40.30;35.85;;;;;;;;;;4924445;27;3104928;-92
2021/06/18 04:42:48;;;;;;;40.47;34.40;;;;;;;;;;4939067;28;20491;-92
2021/06/18 04:45:30;;;;;;;42.33;36.72;;;;;;;;;;4992239;28;122075;-91
2021/06/18 04:48:03;;;;;;;41.50;35.00;;;;;;;;;;4893357;28;20059;-89
2021/06/18 04:50:53;;;;;;;44.35;37.67;;;;;;;;;;4971084;28;20154;-92
2021/06/18 04:53:38;;;;;;;44.55;38.53;;;;;;;;;;4842979;29;20059;-92
2021/06/18 04:56:43;;;;;;;58.60;47.63;;;;;;;;;;4968016;27;149160;-95
2021/06/18 04:59:20;;;;;;;52.03;38.28;;;;;;;;;;4866079;28;554912;-94
2021/06/18 05:01:59;;;;;;;55.92;37.40;;;;;;;;;;4980195;28;20150;-93
2021/06/18 05:04:37;;;;;;;54.83;36.22;;;;;;;;;;4873993;28;344347;-92
2021/06/18 05:07:26;;;;;;;58.83;35.40;;;;;;;;;;4955553;27;20148;-93
2021/06/18 05:09:57;;;;;;;49.25;29.10;;;;;;;;;;4917880;28;20052;-92
2021/06/18 05:12:43;;;;;;;56.20;33.53;;;;;;;;;;4964317;27;838390;-92
2021/06/18 05:15:10;;;;;;;53.75;32.03;;;;;;;;;;4907552;28;20067;-93
2021/06/18 05:17:56;;;;;;;52.60;30.15;;;;;;;;;;4972226;27;118895;-93
2021/06/18 05:20:32;;;;;;;51.47;29.85;;;;;;;;;;4907058;28;20055;-93
2021/06/18 05:23:17;;;;;;;53.47;29.67;;;;;;;;;;4985125;27;100743;-91
2021/06/18 05:28:54;;;;;;;53.08;30.35;;;;;;;;;;4451208;27;15080477;-92
2021/06/18 05:31:25;;;;;;;49.42;28.50;;;;;;;;;;4981628;28;20062;-91
2021/06/18 05:34:10;;;;;;;44.72;27.55;;;;;;;;;;5007704;27;20162;-92
2021/06/18 05:36:45;;;;;;;47.75;27.10;;;;;;;;;;4968638;28;20696;-92
2021/06/18 05:41:14;;;;;;;43.70;26.98;;;;;;;;;;5010195;27;110096;-92
2021/06/18 05:43:49;;;;;;;37.67;24.92;;;;;;;;;;4958738;28;20211;-91
2021/06/18 05:46:46;;;;;;;39.83;25.40;;;;;;;;;;5021590;27;20140;-92
2021/06/18 05:49:24;;;;;;;35.75;23.38;;;;;;;;;;4971028;28;20057;-92
2021/06/18 05:51:51;;;;;;;37.17;24.27;;;;;;;;;;4428203;28;7856731;-92
2021/06/18 05:54:38;;;;;;;37.28;26.05;;;;;;;;;;4982533;27;20511;-92
2021/06/18 05:57:14;;;;;;;32.88;23.48;;;;;;;;;;4858497;29;20057;-93
2021/06/18 06:00:14;;;;;;;25.90;21.05;;;;;;;;;;4995481;27;20376;-91
2021/06/18 06:02:41;;;;;;;23.98;20.48;;;;;;;;;;4953300;28;20058;-92
2021/06/18 06:07:53;;;;;;;22.52;20.13;;;;;;;;;;5009905;27;128555;-93
2021/06/18 06:10:33;;;;;;;22.17;19.88;;;;;;;;;;4884276;28;20060;-93
2021/06/18 06:13:37;;;;;;;;;;;;;;;;;;;;;
2021/06/18 06:16:12;;;;;;;20.58;18.48;;;;;;;;;;4930853;28;20122;-91
2021/06/18 06:18:56;;;;;;;20.75;18.55;;;;;;;;;;4990726;27;20157;-92
2021/06/18 06:21:35;;;;;;;20.40;18.20;;;;;;;;;;4881574;28;20071;-92
2021/06/18 06:24:11;;;;;;;21.55;19.33;;;;;;;;;;4900660;28;20081;-89
2021/06/18 06:28:25;;;;;;;22.12;19.96;;;;;;;;;;4727141;28;108912076;-88
2021/06/18 06:31:11;;;;;;;25.13;22.52;;;;;;;;;;4923343;28;20193;-91
2021/06/18 06:33:50;;;;;;;25.80;23.08;;;;;;;;;;4889628;28;20055;-91
2021/06/18 06:36:16;;;;;;;18.70;16.70;;;;;;;;;;2554990;29;51017262;-89
2021/06/18 06:39:07;;;;;;;23.05;20.60;;;;;;;;;;5132063;27;85750;-90
2021/06/18 06:41:36;;;;;;;23.85;21.45;;;;;;;;;;5119741;27;20051;-88
2021/06/18 06:44:03;;;;;;;27.25;24.33;;;;;;;;;;5135298;27;20092;-91
2021/06/18 06:46:30;;;;;;;26.17;23.55;;;;;;;;;;5128470;27;20091;-88
2021/06/18 06:48:56;;;;;;;29.20;26.17;;;;;;;;;;5141522;27;20046;-89
2021/06/18 06:51:22;;;;;;;25.73;23.27;;;;;;;;;;5142001;27;20044;-89
2021/06/18 06:53:48;;;;;;;29.52;26.52;;;;;;;;;;5118358;27;20035;-90
2021/06/18 06:56:17;;;;;;;31.20;27.20;;;;;;;;;;5022319;28;20099;-88
2021/06/18 06:58:47;;;;;;;32.03;28.27;;;;;;;;;;4928924;28;20056;-89
2021/06/18 07:01:31;;;;;;;32.47;29.15;;;;;;;;;;4987316;28;20115;-88
2021/06/18 07:04:03;;;;;;;32.30;28.80;;;;;;;;;;4916866;28;20066;-88
2021/06/18 07:06:39;;;;;;;31.98;28.58;;;;;;;;;;4879813;28;20063;-88
2021/06/18 07:11:48;;;;;;;34.97;31.02;;;;;;;;;;5107100;27;20585;-88
2021/06/18 07:14:17;;;;;;;28.40;25.55;;;;;;;;;;5094301;28;20051;-89
2021/06/18 07:16:43;;;;;;;26.95;24.25;;;;;;;;;;5039670;28;20052;-85
2021/06/18 07:19:10;;;;;;;26.63;24.02;;;;;;;;;;4973863;28;20448;-88
2021/06/18 07:21:36;;;;;;;24.58;22.15;;;;;;;;;;4947272;28;20054;-88
2021/06/18 07:24:20;;;;;;;23.65;21.52;;;;;;;;;;5052916;27;20221;-88
2021/06/18 07:26:47;;;;;;;24.30;22.05;;;;;;;;;;5004745;28;20054;-86
2021/06/18 07:29:13;;;;;;;25.13;22.92;;;;;;;;;;4972191;28;20060;-88
2021/06/18 07:31:49;;;;;;;25.67;23.43;;;;;;;;;;4795448;28;5032066;-89
2021/06/18 07:34:33;;;;;;;25.70;23.30;;;;;;;;;;4967757;27;974185;-88
2021/06/18 07:37:00;;;;;;;27.27;24.90;;;;;;;;;;4885161;28;20059;-88
2021/06/18 07:39:28;;;;;;;24.10;22.05;;;;;;;;;;4925206;28;20093;-86
2021/06/18 07:41:57;;;;;;;26.58;24.15;;;;;;;;;;4949870;28;20117;-86
2021/06/18 07:44:23;;;;;;;26.58;24.17;;;;;;;;;;4963183;28;20051;-88
2021/06/18 07:46:50;;;;;;;25.50;23.23;;;;;;;;;;4932461;28;20057;-87
2021/06/18 07:49:24;;;;;;;24.05;21.95;;;;;;;;;;4853683;28;20072;-89
2021/06/18 07:52:16;;;;;;;21.58;19.75;;;;;;;;;;4970095;28;20408;-89
2021/06/18 07:54:42;;;;;;;23.65;21.55;;;;;;;;;;4904385;28;20195;-88
2021/06/18 07:57:27;;;;;;;21.67;19.77;;;;;;;;;;5031085;27;20139;-89
2021/06/18 07:59:53;;;;;;;22.17;20.33;;;;;;;;;;4957748;28;20124;-86
2021/06/18 08:02:30;;;;;;;21.65;19.85;;;;;;;;;;4900774;28;20055;-91
2021/06/18 08:05:06;;;;;;;23.80;21.60;;;;;;;;;;4875285;28;20119;-90
2021/06/18 08:07:49;;;;;;;21.45;19.60;;;;;;;;;;5073225;27;20140;-92
2021/06/18 08:10:17;;;;;;;23.38;21.38;;;;;;;;;;5044846;28;20071;-92
2021/06/18 08:12:44;;;;;;;22.85;20.95;;;;;;;;;;5037874;28;20049;-92
2021/06/18 08:15:13;;;;;;;23.63;21.52;;;;;;;;;;5047036;28;20103;-89
2021/06/18 08:17:40;;;;;;;21.40;19.35;;;;;;;;;;4946040;28;20117;-92
2021/06/18 08:20:07;;;;;;;20.33;18.52;;;;;;;;;;4948890;28;20060;-93
2021/06/18 08:22:34;;;;;;;19.90;18.30;;;;;;;;;;4951787;28;20086;-89
2021/06/18 08:25:02;;;;;;;21.33;19.52;;;;;;;;;;4887744;28;20051;-93
2021/06/18 08:27:28;;;;;;;18.42;16.77;;;;;;;;;;4910454;28;20061;-92
2021/06/18 08:29:57;;;;;;;18.90;17.30;;;;;;;;;;4914111;28;20099;-92
2021/06/18 08:32:23;;;;;;;18.67;17.08;;;;;;;;;;4854406;29;20049;-96
2021/06/18 08:35:10;;;;;;;17.63;16.13;;;;;;;;;;5015841;27;20129;-89
2021/06/18 08:37:46;;;;;;;18.65;16.88;;;;;;;;;;4943193;28;20058;-90
2021/06/18 08:43:15;;;;;;;16.55;15.10;;;;;;;;;;4991436;27;122171;-91
2021/06/18 08:45:45;;;;;;;17.75;16.25;;;;;;;;;;4908146;28;20051;-90
2021/06/18 08:48:33;;;;;;;16.13;14.82;;;;;;;;;;4938046;27;970121;-90
2021/06/18 08:51:05;;;;;;;16.90;15.50;;;;;;;;;;4906805;28;20494;-93
2021/06/18 08:53:36;;;;;;;16.73;15.32;;;;;;;;;;4879821;28;20059;-93
2021/06/18 08:56:05;;;;;;;16.17;14.88;;;;;;;;;;4814857;29;20046;-94
2021/06/18 08:59:07;;;;;;;16.67;15.27;;;;;;;;;;4973445;27;20501;-95
2021/06/18 09:01:34;;;;;;;16.50;15.10;;;;;;;;;;4876197;28;20058;-94
2021/06/18 09:04:10;;;;;;;;;;;;;;;;;;3933435;29;36664142;-89
2021/06/18 09:06:57;;;;;;;14.85;13.57;;;;;;;;;;5001499;27;20012;-94
2021/06/18 09:09:25;;;;;;;16.30;14.75;;;;;;;;;;4918964;28;20060;-95
2021/06/18 09:11:56;;;;;;;15.35;14.15;;;;;;;;;;4895158;29;20151;-94
2021/06/18 09:14:40;;;;;;;15.63;14.32;;;;;;;;;;4986354;27;20414;-94
2021/06/18 09:17:10;;;;;;;14.82;13.52;;;;;;;;;;4937688;28;20046;-92
2021/06/18 09:19:38;;;;;;;15.07;13.82;;;;;;;;;;4944737;28;20058;-93
2021/06/18 09:22:09;;;;;;;16.00;14.70;;;;;;;;;;4877349;28;20059;-93
2021/06/18 09:25:10;;;;;;;15.60;14.23;;;;;;;;;;5016603;27;20138;-92
2021/06/18 09:27:38;;;;;;;16.30;14.90;;;;;;;;;;4882056;28;20056;-95
2021/06/18 09:30:32;;;;;;;16.48;15.05;;;;;;;;;;4989660;27;84233;-92
2021/06/18 09:33:09;;;;;;;16.05;14.70;;;;;;;;;;4862223;29;20130;-95
2021/06/18 09:35:36;;;;;;;16.63;15.23;;;;;;;;;;4838927;29;20039;-95
2021/06/18 09:38:20;;;;;;;16.38;14.98;;;;;;;;;;4987868;27;20201;-95
2021/06/18 09:40:55;;;;;;;16.85;15.48;;;;;;;;;;4907698;28;20119;-93
2021/06/18 09:43:46;;;;;;;19.05;17.45;;;;;;;;;;5002486;27;20649;-94
2021/06/18 09:46:13;;;;;;;18.02;16.42;;;;;;;;;;4926421;28;20507;-92
2021/06/18 09:48:49;;;;;;;19.30;17.60;;;;;;;;;;4895986;28;20060;-95
2021/06/18 09:51:31;;;;;;;16.73;15.40;;;;;;;;;;4986719;28;20210;-93
2021/06/18 09:54:19;;;;;;;18.63;17.02;;;;;;;;;;4940321;28;20053;-95
2021/06/18 09:56:45;;;;;;;18.98;17.38;;;;;;;;;;4874034;28;20053;-95
2021/06/18 09:59:27;;;;;;;17.05;15.63;;;;;;;;;;4972824;27;132487;-92
2021/06/18 10:01:54;;;;;;;19.48;17.80;;;;;;;;;;4890906;28;20124;-96
2021/06/18 10:04:24;;;;;;;18.02;16.42;;;;;;;;;;4866842;29;27819;-94
2021/06/18 10:07:08;;;;;;;17.38;15.77;;;;;;;;;;5009375;27;811825;-94
2021/06/18 10:09:35;;;;;;;16.95;15.45;;;;;;;;;;4997827;28;20143;-94
2021/06/18 10:12:01;;;;;;;16.77;15.48;;;;;;;;;;4914927;28;20051;-95
2021/06/18 10:14:31;;;;;;;16.33;15.00;;;;;;;;;;4921032;28;461177;-94
2021/06/18 10:17:13;;;;;;;16.23;14.73;;;;;;;;;;4944430;27;2861807;-91
2021/06/18 10:19:45;;;;;;;13.45;12.25;;;;;;;;;;4990414;28;20501;-95
2021/06/18 10:22:22;;;;;;;11.63;10.63;;;;;;;;;;4934920;28;20053;-95
2021/06/18 10:25:07;;;;;;;10.88;9.98;;;;;;;;;;4962932;27;20137;-91
2021/06/18 10:27:46;;;;;;;10.23;9.32;;;;;;;;;;4844993;29;20136;-93
2021/06/18 10:30:33;;;;;;;10.65;9.65;;;;;;;;;;5004603;27;20238;-94
2021/06/18 10:33:03;;;;;;;10.60;9.70;;;;;;;;;;4975037;28;20085;-95
2021/06/18 10:35:41;;;;;;;10.35;9.55;;;;;;;;;;4975548;28;20064;-96
2021/06/18 10:38:26;;;;;;;10.05;9.15;;;;;;;;;;4928916;28;20581;-94
2021/06/18 10:40:52;;;;;;;10.73;9.82;;;;;;;;;;4870728;28;34619;-92
2021/06/18 10:43:37;;;;;;;10.25;9.45;;;;;;;;;;4944544;28;140859;-95
2021/06/18 10:46:22;;;;;;;9.15;8.43;;;;;;;;;;5001824;27;20497;-96
2021/06/18 10:48:54;;;;;;;10.18;9.05;;;;;;;;;;4895151;28;20048;-96
2021/06/18 10:51:38;;;;;;;8.55;7.85;;;;;;;;;;4864316;29;20063;-94
2021/06/18 10:54:44;;;;;;;9.68;8.77;;;;;;;;;;5020062;27;20342;-95
2021/06/18 10:57:14;;;;;;;9.32;8.43;;;;;;;;;;4912609;28;20055;-92
2021/06/18 10:59:47;;;;;;;10.13;9.20;;;;;;;;;;4880377;29;20536;-95
2021/06/18 11:02:22;;;;;;;9.90;9.00;;;;;;;;;;4880811;28;20105;-94
2021/06/18 11:05:07;;;;;;;9.85;8.93;;;;;;;;;;5041571;27;140616;-90
2021/06/18 11:07:39;;;;;;;9.45;8.35;;;;;;;;;;4942054;28;20314;-93
2021/06/18 11:10:13;;;;;;;10.00;9.05;;;;;;;;;;4924154;28;20051;-96
2021/06/18 11:12:46;;;;;;;10.35;9.45;;;;;;;;;;4591221;29;5752939;-92
2021/06/18 11:15:49;;;;;;;10.60;9.60;;;;;;;;;;4960671;27;20143;-94
2021/06/18 11:18:18;;;;;;;11.55;10.35;;;;;;;;;;4874738;29;20108;-89
2021/06/18 11:20:52;;;;;;;11.18;10.10;;;;;;;;;;4850174;29;20072;-95
2021/06/18 11:23:34;;;;;;;10.00;9.10;;;;;;;;;;4860844;29;20134;-93
2021/06/18 11:26:06;;;;;;;10.25;9.40;;;;;;;;;;4822330;29;267273;-95
2021/06/18 11:28:55;;;;;;;10.23;9.13;;;;;;;;;;5004494;27;20671;-91
2021/06/18 11:31:50;;;;;;;8.77;7.95;;;;;;;;;;4563196;29;8530003;-93
2021/06/18 11:34:34;;;;;;;9.68;8.85;;;;;;;;;;4966042;27;143476;-91
2021/06/18 11:39:42;;;;;;;10.15;9.25;;;;;;;;;;5012066;27;20476;-92
2021/06/18 11:42:13;;;;;;;9.88;8.95;;;;;;;;;;4928749;28;20428;-92
2021/06/18 11:45:00;;;;;;;10.50;9.52;;;;;;;;;;5046336;27;20429;-91
2021/06/18 11:47:34;;;;;;;10.45;9.45;;;;;;;;;;4957004;28;20050;-88
2021/06/18 11:50:03;;;;;;;10.30;9.38;;;;;;;;;;4942526;28;20116;-90
2021/06/18 11:52:30;;;;;;;10.23;9.32;;;;;;;;;;4918813;28;20455;-89
2021/06/18 11:55:14;;;;;;;9.68;8.77;;;;;;;;;;5033168;27;20230;-87
2021/06/18 11:57:42;;;;;;;9.32;8.45;;;;;;;;;;4967317;28;20070;-92
2021/06/18 12:00:09;;;;;;;10.25;9.35;;;;;;;;;;4951593;28;20502;-90
2021/06/18 12:02:36;;;;;;;10.35;9.35;;;;;;;;;;4943461;28;20118;-89
2021/06/18 12:05:16;;;;;;;10.57;9.68;;;;;;;;;;4917031;28;20051;-89
2021/06/18 12:07:52;;;;;;;10.90;10.00;;;;;;;;;;4948701;28;20054;-91
2021/06/18 12:11:13;;;;;;;10.77;9.77;;;;;;;;;;5021981;27;20234;-88
2021/06/18 12:13:49;;;;;;;11.32;10.20;;;;;;;;;;4921657;28;20132;-91
2021/06/18 12:16:29;;;;;;;11.60;10.50;;;;;;;;;;4902983;28;20104;-88
2021/06/18 12:19:23;;;;;;;11.27;10.27;;;;;;;;;;5026156;27;20559;-90
2021/06/18 12:21:57;;;;;;;12.50;11.40;;;;;;;;;;4937585;28;20093;-90
2021/06/18 12:24:28;;;;;;;11.63;10.43;;;;;;;;;;4885913;28;20581;-89
2021/06/18 12:27:11;;;;;;;12.63;11.35;;;;;;;;;;5014749;27;20598;-90
2021/06/18 12:29:41;;;;;;;12.18;11.07;;;;;;;;;;4932626;28;20054;-88
2021/06/18 12:32:08;;;;;;;13.00;11.77;;;;;;;;;;4918646;28;20158;-92
2021/06/18 12:34:37;;;;;;;12.65;11.45;;;;;;;;;;4909655;28;20121;-91
2021/06/18 12:37:26;;;;;;;12.93;11.75;;;;;;;;;;5008944;27;20144;-90
2021/06/18 12:39:54;;;;;;;13.80;12.60;;;;;;;;;;5048395;28;20485;-91
2021/06/18 12:42:31;;;;;;;14.00;12.70;;;;;;;;;;5050023;28;20045;-91
2021/06/18 12:45:03;;;;;;;13.63;12.32;;;;;;;;;;5055884;28;20135;-91
2021/06/18 12:47:29;;;;;;;13.80;12.55;;;;;;;;;;5064432;28;20079;-91
2021/06/18 12:49:56;;;;;;;14.30;12.85;;;;;;;;;;5061259;28;20049;-89
2021/06/18 12:52:22;;;;;;;13.95;12.55;;;;;;;;;;5059137;28;20049;-92
2021/06/18 12:54:48;;;;;;;12.85;11.32;;;;;;;;;;5065416;28;20135;-90
2021/06/18 12:57:27;;;;;;;12.43;11.23;;;;;;;;;;5059174;28;20049;-90
2021/06/18 13:00:10;;;;;;;11.38;10.20;;;;;;;;;;5080878;28;20049;-90
2021/06/18 13:02:37;;;;;;;11.35;10.15;;;;;;;;;;5055713;28;20044;-91
2021/06/18 13:05:17;;;;;;;11.25;10.15;;;;;;;;;;5065973;28;20090;-91
2021/06/18 13:07:44;;;;;;;11.20;10.10;;;;;;;;;;5051333;28;20053;-91
2021/06/18 13:10:11;;;;;;;10.77;9.77;;;;;;;;;;5066374;28;20048;-92
2021/06/18 13:12:37;;;;;;;11.95;9.75;;;;;;;;;;5055149;28;20128;-91
2021/06/18 13:15:04;;;;;;;11.60;10.40;;;;;;;;;;5066910;28;20048;-90
2021/06/18 13:17:30;;;;;;;11.50;10.40;;;;;;;;;;5062479;28;20045;-92
2021/06/18 13:19:56;;;;;;;10.90;9.88;;;;;;;;;;5058294;28;20060;-94
2021/06/18 13:22:24;;;;;;;12.75;11.45;;;;;;;;;;5039259;28;20091;-95
2021/06/18 13:25:13;;;;;;;12.10;10.68;;;;;;;;;;4961028;28;20096;-94
2021/06/18 13:27:51;;;;;;;13.07;11.02;;;;;;;;;;4945676;28;20488;-93
2021/06/18 13:41:03;;;;;;;12.63;11.43;;;;;;;;;;6076747;22;3158187;-95
2021/06/18 13:44:19;;;;;;;13.43;12.13;;;;;;;;;;6018585;23;20045;-94
2021/06/18 14:00:58;;;;;;;12.30;10.93;;;;;;;;;;5852133;22;8825190;-92
2021/06/18 14:03:54;;;;;;;13.52;12.15;;;;;;;;;;6014551;23;20028;-90
2021/06/18 14:06:45;;;;;;;14.55;13.15;;;;;;;;;;6086392;23;20023;-96
2021/06/18 14:09:21;;;;;;;16.15;14.63;;;;;;;;;;6009507;23;20034;-96
2021/06/18 14:15:08;;;;;;;16.27;14.67;;;;;;;;;;5997095;23;20034;-95
2021/06/18 14:17:44;;;;;;;16.67;15.07;;;;;;;;;;5860918;24;449031;-94
2021/06/18 14:20:26;;;;;;;16.83;15.10;;;;;;;;;;5179194;22;1066252;-93
2021/06/18 14:40:31;;;;;;;16.35;14.75;;;;;;;;;;6143915;21;883845;-93
2021/06/18 14:46:00;;;;;;;17.40;15.50;;;;;;;;;;5943788;23;104502;-95
2021/06/18 14:49:01;;;;;;;17.27;15.57;;;;;;;;;;4993448;27;20433;-96
2021/06/18 14:51:46;;;;;;;15.93;14.35;;;;;;;;;;4978857;22;20023;-95
2021/06/18 14:54:18;;;;;;;16.63;15.02;;;;;;;;;;4905509;28;20051;-96
2021/06/18 15:09:50;;;;;;;18.08;16.17;;;;;;;;;;4968530;27;20157;-94
2021/06/18 15:12:17;;;;;;;21.10;18.27;;;;;;;;;;4911728;28;20046;-93
2021/06/18 15:14:49;;;;;;;19.35;17.27;;;;;;;;;;4891225;28;20199;-94
2021/06/18 15:17:29;;;;;;;18.77;16.88;;;;;;;;;;4817429;29;1249411;-89
2021/06/18 15:20:14;;;;;;;19.65;17.00;;;;;;;;;;5054448;27;20481;-94
2021/06/18 15:22:41;;;;;;;18.58;16.58;;;;;;;;;;5046224;28;20057;-93
2021/06/18 15:25:08;;;;;;;18.77;16.88;;;;;;;;;;5000128;28;22029;-92
2021/06/18 15:27:44;;;;;;;17.13;15.52;;;;;;;;;;4966798;28;20462;-92
2021/06/18 15:30:21;;;;;;;17.48;15.63;;;;;;;;;;4970092;28;20065;-93
2021/06/18 15:33:05;;;;;;;16.83;15.10;;;;;;;;;;5002503;28;20727;-93
2021/06/18 15:35:42;;;;;;;16.60;15.00;;;;;;;;;;4927335;28;20111;-93
2021/06/18 15:38:36;;;;;;;17.15;15.35;;;;;;;;;;4991886;27;135122;-92
2021/06/18 15:41:16;;;;;;;16.33;14.73;;;;;;;;;;4965840;28;20050;-93
2021/06/18 15:43:44;;;;;;;17.20;15.50;;;;;;;;;;4416853;28;14558091;-96
2021/06/18 15:46:30;;;;;;;17.05;15.45;;;;;;;;;;5007502;27;94318;-93
2021/06/18 15:49:08;;;;;;;18.02;16.13;;;;;;;;;;4866080;29;20323;-92
2021/06/18 16:02:20;;;;;;;16.65;14.25;;;;;;;;;;6064663;22;172432;-93
2021/06/18 16:04:49;;;;;;;16.67;15.00;;;;;;;;;;5829061;24;1553407;-95
2021/06/18 16:07:34;;;;;;;16.38;14.88;;;;;;;;;;5031721;27;113023;-96
2021/06/18 16:10:01;;;;;;;17.15;15.35;;;;;;;;;;4920451;28;20070;-96
2021/06/18 16:12:27;;;;;;;18.13;16.27;;;;;;;;;;4877230;28;20055;-94
2021/06/18 16:15:08;;;;;;;17.60;15.88;;;;;;;;;;5032377;27;137641;-94
2021/06/18 16:17:35;;;;;;;19.20;15.93;;;24.80;74.00;;;;;;4976544;28;20050;-94
2021/06/18 16:20:03;;;;;;;17.67;15.98;;;24.80;75.10;;;;;;4917026;28;20101;-95
2021/06/18 16:22:46;;;;;;;15.98;14.35;;;24.70;75.20;;;;;;5032842;27;125098;-92
2021/06/18 16:25:15;;;;;;;16.60;14.95;;;24.60;75.40;;;;;;5016978;28;20163;-91
2021/06/18 16:27:44;;;;;;;17.40;15.80;;;24.50;75.50;;;;;;5044670;28;20569;-90
2021/06/18 16:30:14;;;;;;;17.27;15.57;;;24.20;76.30;;;;;;4985661;28;20059;-89
2021/06/18 16:32:42;;;;;;;17.05;15.32;;;24.20;76.80;;;;;;4955703;28;20087;-90
2021/06/18 16:35:11;;;;;;;15.85;14.25;;;23.90;77.10;;;;;;4989363;28;20060;-93
2021/06/18 16:37:47;;;;;;;16.08;14.38;;;23.90;77.50;;;;;;4955397;28;20053;-94
2021/06/18 16:40:46;;;;;;;;;;;;;;;;;;;;;
2021/06/18 16:46:48;;;;;;;17.57;15.47;;;23.70;77.80;;;;;;4850070;27;3288810;-94
2021/06/18 16:49:43;;;;;;;15.95;14.35;;;23.40;78.50;;;;;;5000361;28;20445;-96
2021/06/18 16:52:38;;;;;;;15.13;13.60;;;23.40;78.50;;;;;;4918692;28;20059;-93
2021/06/18 16:55:34;;;;;;;15.80;13.77;;;23.40;78.70;;;;;;4919191;28;20055;-94
2021/06/18 16:58:03;;;;;;;13.98;12.52;;;23.40;78.70;;;;;;4870694;29;20071;-93
2021/06/18 17:00:31;;;;;;;14.82;13.18;;;23.40;78.60;;;;;;4904306;28;20535;-90
2021/06/18 17:02:57;;;;;;;16.10;14.40;;;23.40;78.60;;;;;;4917983;28;20056;-91
2021/06/18 17:05:23;;;;;;;16.48;14.40;;;23.40;78.70;;;;;;4948990;28;20061;-93